sensor_id;sensor_type;location;lat;lon;timestamp;P1;durP1;ratioP1;P2;durP2;ratioP2
20067;SDS011;10194;50.824;7.134;2023-08-21T00:01:11;165.37;;;102.63;;
20067;SDS011;10194;50.824;7.134;2023-08-21T00:03:36;167.20;;;104.23;;
20067;SDS011;10194;50.824;7.134;2023-08-21T00:06:02;168.47;;;103.97;;
20067;SDS011;10194;50.824;7.134;2023-08-21T00:08:28;165.27;;;102.87;;
20067;SDS011;10194;50.824;7.134;2023-08-21T00:10:53;163.87;;;104.90;;
20067;SDS011;10194;50.824;7.134;2023-08-21T00:13:20;168.13;;;105.50;;
20067;SDS011;10194;50.824;7.134;2023-08-21T00:15:46;161.77;;;102.03;;
20067;SDS011;10194;50.824;7.134;2023-08-21T00:18:12;166.97;;;103.33;;
20067;SDS011;10194;50.824;7.134;2023-08-21T00:20:38;164.43;;;104.00;;
20067;SDS011;10194;50.824;7.134;2023-08-21T00:23:06;162.50;;;103.53;;
20067;SDS011;10194;50.824;7.134;2023-08-21T00:25:33;166.03;;;104.20;;
20067;SDS011;10194;50.824;7.134;2023-08-21T00:27:59;165.70;;;102.77;;
20067;SDS011;10194;50.824;7.134;2023-08-21T00:30:26;167.43;;;104.00;;
20067;SDS011;10194;50.824;7.134;2023-08-21T00:32:51;163.73;;;102.73;;
20067;SDS011;10194;50.824;7.134;2023-08-21T00:35:17;171.07;;;106.47;;
20067;SDS011;10194;50.824;7.134;2023-08-21T00:37:43;178.43;;;106.40;;
20067;SDS011;10194;50.824;7.134;2023-08-21T00:40:09;171.33;;;106.93;;
20067;SDS011;10194;50.824;7.134;2023-08-21T00:42:35;176.63;;;110.70;;
20067;SDS011;10194;50.824;7.134;2023-08-21T00:45:04;167.80;;;104.77;;
20067;SDS011;10194;50.824;7.134;2023-08-21T00:47:33;169.40;;;104.70;;
20067;SDS011;10194;50.824;7.134;2023-08-21T00:50:00;170.33;;;106.77;;
20067;SDS011;10194;50.824;7.134;2023-08-21T00:52:26;172.70;;;106.77;;
20067;SDS011;10194;50.824;7.134;2023-08-21T00:54:53;166.50;;;103.90;;
20067;SDS011;10194;50.824;7.134;2023-08-21T00:57:20;171.43;;;105.27;;
20067;SDS011;10194;50.824;7.134;2023-08-21T00:59:48;173.70;;;106.97;;
20067;SDS011;10194;50.824;7.134;2023-08-21T01:02:14;167.10;;;102.83;;
20067;SDS011;10194;50.824;7.134;2023-08-21T01:04:39;174.57;;;106.00;;
20067;SDS011;10194;50.824;7.134;2023-08-21T01:07:05;169.43;;;103.80;;
20067;SDS011;10194;50.824;7.134;2023-08-21T01:12:39;170.23;;;103.77;;
20067;SDS011;10194;50.824;7.134;2023-08-21T01:15:15;173.53;;;103.93;;
20067;SDS011;10194;50.824;7.134;2023-08-21T01:17:41;172.17;;;103.23;;
20067;SDS011;10194;50.824;7.134;2023-08-21T01:20:10;170.43;;;105.67;;
20067;SDS011;10194;50.824;7.134;2023-08-21T01:22:38;168.37;;;103.47;;
20067;SDS011;10194;50.824;7.134;2023-08-21T01:25:06;171.77;;;104.13;;
20067;SDS011;10194;50.824;7.134;2023-08-21T01:27:34;167.20;;;101.93;;
20067;SDS011;10194;50.824;7.134;2023-08-21T01:30:01;174.97;;;104.80;;
20067;SDS011;10194;50.824;7.134;2023-08-21T01:32:39;168.70;;;103.30;;
20067;SDS011;10194;50.824;7.134;2023-08-21T01:35:25;173.80;;;103.60;;
20067;SDS011;10194;50.824;7.134;2023-08-21T01:37:53;169.43;;;102.90;;
20067;SDS011;10194;50.824;7.134;2023-08-21T01:40:22;168.47;;;103.97;;
20067;SDS011;10194;50.824;7.134;2023-08-21T01:42:49;170.73;;;104.27;;
20067;SDS011;10194;50.824;7.134;2023-08-21T01:45:15;163.43;;;101.63;;
20067;SDS011;10194;50.824;7.134;2023-08-21T01:47:41;165.83;;;102.00;;
20067;SDS011;10194;50.824;7.134;2023-08-21T01:50:07;170.23;;;103.80;;
20067;SDS011;10194;50.824;7.134;2023-08-21T01:52:33;165.87;;;103.60;;
20067;SDS011;10194;50.824;7.134;2023-08-21T01:54:59;164.17;;;101.90;;
20067;SDS011;10194;50.824;7.134;2023-08-21T01:57:25;167.77;;;103.13;;
20067;SDS011;10194;50.824;7.134;2023-08-21T01:59:51;167.67;;;102.77;;
20067;SDS011;10194;50.824;7.134;2023-08-21T02:02:17;168.00;;;103.83;;
20067;SDS011;10194;50.824;7.134;2023-08-21T02:04:43;168.13;;;105.77;;
20067;SDS011;10194;50.824;7.134;2023-08-21T02:07:08;169.43;;;105.50;;
20067;SDS011;10194;50.824;7.134;2023-08-21T02:09:34;170.00;;;102.97;;
20067;SDS011;10194;50.824;7.134;2023-08-21T02:12:00;166.10;;;101.60;;
20067;SDS011;10194;50.824;7.134;2023-08-21T02:14:26;166.40;;;102.53;;
20067;SDS011;10194;50.824;7.134;2023-08-21T02:16:51;165.87;;;99.97;;
20067;SDS011;10194;50.824;7.134;2023-08-21T02:19:17;171.00;;;101.77;;
20067;SDS011;10194;50.824;7.134;2023-08-21T02:21:43;165.73;;;103.60;;
20067;SDS011;10194;50.824;7.134;2023-08-21T02:24:09;166.03;;;101.07;;
20067;SDS011;10194;50.824;7.134;2023-08-21T02:26:34;167.13;;;102.70;;
20067;SDS011;10194;50.824;7.134;2023-08-21T02:29:00;167.23;;;103.57;;
20067;SDS011;10194;50.824;7.134;2023-08-21T02:31:26;165.60;;;102.30;;
20067;SDS011;10194;50.824;7.134;2023-08-21T02:33:52;163.77;;;100.00;;
20067;SDS011;10194;50.824;7.134;2023-08-21T02:36:17;163.67;;;99.20;;
20067;SDS011;10194;50.824;7.134;2023-08-21T02:38:43;168.47;;;101.43;;
20067;SDS011;10194;50.824;7.134;2023-08-21T02:41:09;171.63;;;104.63;;
20067;SDS011;10194;50.824;7.134;2023-08-21T02:43:35;165.90;;;103.43;;
20067;SDS011;10194;50.824;7.134;2023-08-21T02:46:01;170.23;;;102.90;;
20067;SDS011;10194;50.824;7.134;2023-08-21T02:48:27;168.60;;;103.17;;
20067;SDS011;10194;50.824;7.134;2023-08-21T02:50:52;167.73;;;105.17;;
20067;SDS011;10194;50.824;7.134;2023-08-21T02:53:18;168.40;;;103.20;;
20067;SDS011;10194;50.824;7.134;2023-08-21T02:55:44;168.60;;;104.23;;
20067;SDS011;10194;50.824;7.134;2023-08-21T02:58:10;170.07;;;101.50;;
20067;SDS011;10194;50.824;7.134;2023-08-21T03:00:35;170.57;;;104.80;;
20067;SDS011;10194;50.824;7.134;2023-08-21T03:03:02;171.50;;;104.63;;
20067;SDS011;10194;50.824;7.134;2023-08-21T03:05:29;169.73;;;102.43;;
20067;SDS011;10194;50.824;7.134;2023-08-21T03:07:54;168.77;;;102.03;;
20067;SDS011;10194;50.824;7.134;2023-08-21T03:10:20;168.87;;;101.63;;
20067;SDS011;10194;50.824;7.134;2023-08-21T03:12:48;167.50;;;103.33;;
20067;SDS011;10194;50.824;7.134;2023-08-21T03:15:14;181.63;;;109.97;;
20067;SDS011;10194;50.824;7.134;2023-08-21T03:17:40;172.40;;;105.10;;
20067;SDS011;10194;50.824;7.134;2023-08-21T03:20:06;169.90;;;101.63;;
20067;SDS011;10194;50.824;7.134;2023-08-21T03:22:32;173.03;;;102.20;;
20067;SDS011;10194;50.824;7.134;2023-08-21T03:24:58;174.93;;;104.90;;
20067;SDS011;10194;50.824;7.134;2023-08-21T03:27:24;172.93;;;103.70;;
20067;SDS011;10194;50.824;7.134;2023-08-21T03:29:50;171.40;;;104.67;;
20067;SDS011;10194;50.824;7.134;2023-08-21T03:32:16;167.97;;;104.87;;
20067;SDS011;10194;50.824;7.134;2023-08-21T03:34:42;167.53;;;104.43;;
20067;SDS011;10194;50.824;7.134;2023-08-21T03:37:09;170.10;;;102.20;;
20067;SDS011;10194;50.824;7.134;2023-08-21T03:39:35;172.37;;;104.80;;
20067;SDS011;10194;50.824;7.134;2023-08-21T03:42:01;173.07;;;102.37;;
20067;SDS011;10194;50.824;7.134;2023-08-21T03:44:27;172.70;;;102.40;;
20067;SDS011;10194;50.824;7.134;2023-08-21T03:46:52;166.73;;;102.30;;
20067;SDS011;10194;50.824;7.134;2023-08-21T03:49:18;168.60;;;102.77;;
20067;SDS011;10194;50.824;7.134;2023-08-21T03:51:44;166.77;;;100.43;;
20067;SDS011;10194;50.824;7.134;2023-08-21T03:54:10;167.87;;;102.17;;
20067;SDS011;10194;50.824;7.134;2023-08-21T03:56:36;169.63;;;102.20;;
20067;SDS011;10194;50.824;7.134;2023-08-21T03:59:02;179.00;;;105.67;;
20067;SDS011;10194;50.824;7.134;2023-08-21T04:01:28;171.03;;;101.73;;
20067;SDS011;10194;50.824;7.134;2023-08-21T04:03:53;170.70;;;103.33;;
20067;SDS011;10194;50.824;7.134;2023-08-21T04:06:19;172.80;;;101.73;;
20067;SDS011;10194;50.824;7.134;2023-08-21T04:08:45;169.83;;;102.10;;
20067;SDS011;10194;50.824;7.134;2023-08-21T04:11:11;170.13;;;101.97;;
20067;SDS011;10194;50.824;7.134;2023-08-21T04:13:37;172.00;;;101.13;;
20067;SDS011;10194;50.824;7.134;2023-08-21T04:16:03;173.23;;;100.30;;
20067;SDS011;10194;50.824;7.134;2023-08-21T04:18:29;173.90;;;101.43;;
20067;SDS011;10194;50.824;7.134;2023-08-21T04:20:55;174.00;;;103.33;;
20067;SDS011;10194;50.824;7.134;2023-08-21T04:23:20;170.10;;;101.80;;
20067;SDS011;10194;50.824;7.134;2023-08-21T04:25:46;171.47;;;101.87;;
20067;SDS011;10194;50.824;7.134;2023-08-21T04:28:12;173.50;;;100.70;;
20067;SDS011;10194;50.824;7.134;2023-08-21T04:30:39;168.03;;;101.67;;
20067;SDS011;10194;50.824;7.134;2023-08-21T04:33:07;173.30;;;101.60;;
20067;SDS011;10194;50.824;7.134;2023-08-21T04:35:37;175.50;;;101.97;;
20067;SDS011;10194;50.824;7.134;2023-08-21T04:38:03;169.03;;;101.27;;
20067;SDS011;10194;50.824;7.134;2023-08-21T04:40:29;166.30;;;98.93;;
20067;SDS011;10194;50.824;7.134;2023-08-21T04:42:55;171.17;;;101.47;;
20067;SDS011;10194;50.824;7.134;2023-08-21T04:45:21;166.30;;;99.50;;
20067;SDS011;10194;50.824;7.134;2023-08-21T04:47:46;169.20;;;99.30;;
20067;SDS011;10194;50.824;7.134;2023-08-21T04:50:12;168.87;;;97.93;;
20067;SDS011;10194;50.824;7.134;2023-08-21T04:52:38;169.13;;;100.63;;
20067;SDS011;10194;50.824;7.134;2023-08-21T04:55:04;168.50;;;98.73;;
20067;SDS011;10194;50.824;7.134;2023-08-21T04:57:32;165.30;;;97.77;;
20067;SDS011;10194;50.824;7.134;2023-08-21T04:59:57;165.40;;;98.97;;
20067;SDS011;10194;50.824;7.134;2023-08-21T05:02:23;162.37;;;95.33;;
20067;SDS011;10194;50.824;7.134;2023-08-21T05:04:49;164.13;;;97.37;;
20067;SDS011;10194;50.824;7.134;2023-08-21T05:07:15;165.23;;;97.00;;
20067;SDS011;10194;50.824;7.134;2023-08-21T05:09:40;165.83;;;96.20;;
20067;SDS011;10194;50.824;7.134;2023-08-21T05:12:07;163.20;;;97.83;;
20067;SDS011;10194;50.824;7.134;2023-08-21T05:14:33;166.13;;;97.43;;
20067;SDS011;10194;50.824;7.134;2023-08-21T05:16:59;164.10;;;97.37;;
20067;SDS011;10194;50.824;7.134;2023-08-21T05:19:25;168.23;;;98.77;;
20067;SDS011;10194;50.824;7.134;2023-08-21T05:21:51;160.53;;;95.90;;
20067;SDS011;10194;50.824;7.134;2023-08-21T05:24:16;165.37;;;99.00;;
20067;SDS011;10194;50.824;7.134;2023-08-21T05:26:42;168.03;;;99.70;;
20067;SDS011;10194;50.824;7.134;2023-08-21T05:29:08;170.13;;;100.13;;
20067;SDS011;10194;50.824;7.134;2023-08-21T05:31:34;171.43;;;102.57;;
20067;SDS011;10194;50.824;7.134;2023-08-21T05:33:59;161.67;;;99.60;;
20067;SDS011;10194;50.824;7.134;2023-08-21T05:36:25;165.43;;;102.07;;
20067;SDS011;10194;50.824;7.134;2023-08-21T05:38:51;169.63;;;101.80;;
20067;SDS011;10194;50.824;7.134;2023-08-21T05:41:17;171.30;;;104.43;;
20067;SDS011;10194;50.824;7.134;2023-08-21T05:43:43;170.33;;;104.93;;
20067;SDS011;10194;50.824;7.134;2023-08-21T05:46:10;163.13;;;102.53;;
20067;SDS011;10194;50.824;7.134;2023-08-21T05:48:36;166.77;;;104.53;;
20067;SDS011;10194;50.824;7.134;2023-08-21T05:51:02;169.10;;;104.87;;
20067;SDS011;10194;50.824;7.134;2023-08-21T05:53:28;171.70;;;110.03;;
20067;SDS011;10194;50.824;7.134;2023-08-21T05:55:54;177.00;;;112.03;;
20067;SDS011;10194;50.824;7.134;2023-08-21T05:58:20;177.10;;;109.93;;
20067;SDS011;10194;50.824;7.134;2023-08-21T06:00:46;174.03;;;112.27;;
20067;SDS011;10194;50.824;7.134;2023-08-21T06:03:12;174.27;;;111.97;;
20067;SDS011;10194;50.824;7.134;2023-08-21T06:05:38;174.93;;;112.63;;
20067;SDS011;10194;50.824;7.134;2023-08-21T06:08:04;169.57;;;109.27;;
20067;SDS011;10194;50.824;7.134;2023-08-21T06:10:33;172.67;;;110.07;;
20067;SDS011;10194;50.824;7.134;2023-08-21T06:12:59;173.70;;;113.47;;
20067;SDS011;10194;50.824;7.134;2023-08-21T06:15:24;170.07;;;113.40;;
20067;SDS011;10194;50.824;7.134;2023-08-21T06:17:50;171.27;;;115.20;;
20067;SDS011;10194;50.824;7.134;2023-08-21T06:20:16;169.50;;;114.97;;
20067;SDS011;10194;50.824;7.134;2023-08-21T06:22:45;165.20;;;111.13;;
20067;SDS011;10194;50.824;7.134;2023-08-21T06:25:10;169.13;;;115.23;;
20067;SDS011;10194;50.824;7.134;2023-08-21T06:27:37;166.37;;;115.27;;
20067;SDS011;10194;50.824;7.134;2023-08-21T06:30:02;166.90;;;116.60;;
20067;SDS011;10194;50.824;7.134;2023-08-21T06:32:28;167.67;;;117.03;;
20067;SDS011;10194;50.824;7.134;2023-08-21T06:34:54;170.63;;;119.77;;
20067;SDS011;10194;50.824;7.134;2023-08-21T06:37:20;168.37;;;121.47;;
20067;SDS011;10194;50.824;7.134;2023-08-21T06:39:46;173.37;;;121.73;;
20067;SDS011;10194;50.824;7.134;2023-08-21T06:42:11;170.70;;;122.93;;
20067;SDS011;10194;50.824;7.134;2023-08-21T06:44:37;173.53;;;126.00;;
20067;SDS011;10194;50.824;7.134;2023-08-21T06:47:03;171.73;;;126.57;;
20067;SDS011;10194;50.824;7.134;2023-08-21T06:49:29;174.00;;;129.23;;
20067;SDS011;10194;50.824;7.134;2023-08-21T06:51:54;170.17;;;131.73;;
20067;SDS011;10194;50.824;7.134;2023-08-21T06:54:20;169.00;;;134.07;;
20067;SDS011;10194;50.824;7.134;2023-08-21T06:56:46;172.03;;;134.60;;
20067;SDS011;10194;50.824;7.134;2023-08-21T06:59:12;173.93;;;141.63;;
20067;SDS011;10194;50.824;7.134;2023-08-21T07:01:37;168.63;;;140.60;;
20067;SDS011;10194;50.824;7.134;2023-08-21T07:04:03;172.27;;;147.57;;
20067;SDS011;10194;50.824;7.134;2023-08-21T07:06:29;168.27;;;146.83;;
20067;SDS011;10194;50.824;7.134;2023-08-21T07:08:56;172.87;;;150.40;;
20067;SDS011;10194;50.824;7.134;2023-08-21T07:11:21;171.85;;;153.15;;
20067;SDS011;10194;50.824;7.134;2023-08-21T07:13:47;170.40;;;151.97;;
20067;SDS011;10194;50.824;7.134;2023-08-21T07:16:14;170.63;;;152.02;;
20067;SDS011;10194;50.824;7.134;2023-08-21T07:18:40;170.50;;;152.07;;
20067;SDS011;10194;50.824;7.134;2023-08-21T07:21:06;170.98;;;152.40;;
20067;SDS011;10194;50.824;7.134;2023-08-21T07:23:31;174.93;;;156.13;;
20067;SDS011;10194;50.824;7.134;2023-08-21T07:25:58;173.65;;;155.30;;
20067;SDS011;10194;50.824;7.134;2023-08-21T07:28:26;178.02;;;159.38;;
20067;SDS011;10194;50.824;7.134;2023-08-21T07:30:55;176.88;;;158.38;;
20067;SDS011;10194;50.824;7.134;2023-08-21T07:33:25;176.93;;;158.48;;
20067;SDS011;10194;50.824;7.134;2023-08-21T07:35:58;176.90;;;158.43;;
20067;SDS011;10194;50.824;7.134;2023-08-21T07:38:29;178.02;;;159.60;;
20067;SDS011;10194;50.824;7.134;2023-08-21T07:41:05;179.23;;;160.65;;
20067;SDS011;10194;50.824;7.134;2023-08-21T07:43:35;173.55;;;155.13;;
20067;SDS011;10194;50.824;7.134;2023-08-21T07:46:05;170.18;;;151.90;;
20067;SDS011;10194;50.824;7.134;2023-08-21T07:48:33;168.73;;;149.48;;
20067;SDS011;10194;50.824;7.134;2023-08-21T07:51:00;164.50;;;143.52;;
20067;SDS011;10194;50.824;7.134;2023-08-21T07:53:26;167.50;;;145.60;;
20067;SDS011;10194;50.824;7.134;2023-08-21T07:55:52;168.43;;;143.63;;
20067;SDS011;10194;50.824;7.134;2023-08-21T07:58:18;169.83;;;138.77;;
20067;SDS011;10194;50.824;7.134;2023-08-21T08:00:45;172.13;;;138.60;;
20067;SDS011;10194;50.824;7.134;2023-08-21T08:03:11;173.57;;;138.63;;
20067;SDS011;10194;50.824;7.134;2023-08-21T08:05:39;170.60;;;135.57;;
20067;SDS011;10194;50.824;7.134;2023-08-21T08:08:06;172.77;;;135.20;;
20067;SDS011;10194;50.824;7.134;2023-08-21T08:10:31;171.50;;;133.80;;
20067;SDS011;10194;50.824;7.134;2023-08-21T08:12:57;171.63;;;133.90;;
20067;SDS011;10194;50.824;7.134;2023-08-21T08:15:23;171.77;;;132.10;;
20067;SDS011;10194;50.824;7.134;2023-08-21T08:17:49;172.67;;;132.67;;
20067;SDS011;10194;50.824;7.134;2023-08-21T08:20:18;172.57;;;131.87;;
20067;SDS011;10194;50.824;7.134;2023-08-21T08:22:44;177.87;;;133.30;;
20067;SDS011;10194;50.824;7.134;2023-08-21T08:25:10;174.07;;;132.43;;
20067;SDS011;10194;50.824;7.134;2023-08-21T08:27:36;173.33;;;132.23;;
20067;SDS011;10194;50.824;7.134;2023-08-21T08:30:03;171.93;;;132.17;;
20067;SDS011;10194;50.824;7.134;2023-08-21T08:32:29;174.10;;;132.20;;
20067;SDS011;10194;50.824;7.134;2023-08-21T08:34:55;173.53;;;132.07;;
20067;SDS011;10194;50.824;7.134;2023-08-21T08:37:21;174.63;;;134.30;;
20067;SDS011;10194;50.824;7.134;2023-08-21T08:39:47;173.57;;;134.73;;
20067;SDS011;10194;50.824;7.134;2023-08-21T08:42:14;171.77;;;134.70;;
20067;SDS011;10194;50.824;7.134;2023-08-21T08:44:41;173.33;;;134.47;;
20067;SDS011;10194;50.824;7.134;2023-08-21T08:47:08;171.77;;;132.17;;
20067;SDS011;10194;50.824;7.134;2023-08-21T08:49:36;174.13;;;134.23;;
20067;SDS011;10194;50.824;7.134;2023-08-21T08:52:03;174.87;;;132.97;;
20067;SDS011;10194;50.824;7.134;2023-08-21T08:54:29;173.07;;;132.03;;
20067;SDS011;10194;50.824;7.134;2023-08-21T08:56:56;174.37;;;131.60;;
20067;SDS011;10194;50.824;7.134;2023-08-21T08:59:23;175.30;;;135.43;;
20067;SDS011;10194;50.824;7.134;2023-08-21T09:01:49;170.23;;;131.43;;
20067;SDS011;10194;50.824;7.134;2023-08-21T09:04:15;173.80;;;132.73;;
20067;SDS011;10194;50.824;7.134;2023-08-21T09:06:41;171.77;;;132.73;;
20067;SDS011;10194;50.824;7.134;2023-08-21T09:09:07;179.63;;;135.33;;
20067;SDS011;10194;50.824;7.134;2023-08-21T09:11:35;172.97;;;131.10;;
20067;SDS011;10194;50.824;7.134;2023-08-21T09:14:07;171.00;;;131.30;;
20067;SDS011;10194;50.824;7.134;2023-08-21T09:16:33;172.70;;;130.97;;
20067;SDS011;10194;50.824;7.134;2023-08-21T09:18:59;175.93;;;134.43;;
20067;SDS011;10194;50.824;7.134;2023-08-21T09:21:25;173.13;;;132.90;;
20067;SDS011;10194;50.824;7.134;2023-08-21T09:24:01;177.20;;;134.70;;
20067;SDS011;10194;50.824;7.134;2023-08-21T09:26:31;172.77;;;133.57;;
20067;SDS011;10194;50.824;7.134;2023-08-21T09:28:58;178.57;;;134.43;;
20067;SDS011;10194;50.824;7.134;2023-08-21T09:31:32;173.97;;;134.70;;
20067;SDS011;10194;50.824;7.134;2023-08-21T09:33:58;178.93;;;135.40;;
20067;SDS011;10194;50.824;7.134;2023-08-21T09:36:29;178.53;;;136.00;;
20067;SDS011;10194;50.824;7.134;2023-08-21T09:38:56;178.87;;;137.23;;
20067;SDS011;10194;50.824;7.134;2023-08-21T09:41:23;184.73;;;136.90;;
20067;SDS011;10194;50.824;7.134;2023-08-21T09:43:50;177.57;;;135.40;;
20067;SDS011;10194;50.824;7.134;2023-08-21T09:46:16;177.93;;;135.80;;
20067;SDS011;10194;50.824;7.134;2023-08-21T09:48:48;183.87;;;135.30;;
20067;SDS011;10194;50.824;7.134;2023-08-21T09:51:16;187.03;;;136.90;;
20067;SDS011;10194;50.824;7.134;2023-08-21T09:53:43;182.50;;;137.47;;
20067;SDS011;10194;50.824;7.134;2023-08-21T09:56:11;180.53;;;134.67;;
20067;SDS011;10194;50.824;7.134;2023-08-21T09:58:37;180.27;;;134.57;;
20067;SDS011;10194;50.824;7.134;2023-08-21T10:01:07;189.93;;;138.87;;
20067;SDS011;10194;50.824;7.134;2023-08-21T10:03:40;185.53;;;135.90;;
20067;SDS011;10194;50.824;7.134;2023-08-21T10:06:10;178.77;;;133.87;;
20067;SDS011;10194;50.824;7.134;2023-08-21T10:08:38;182.53;;;136.50;;
20067;SDS011;10194;50.824;7.134;2023-08-21T10:11:08;177.93;;;132.13;;
20067;SDS011;10194;50.824;7.134;2023-08-21T10:13:34;181.73;;;138.83;;
20067;SDS011;10194;50.824;7.134;2023-08-21T10:16:03;177.53;;;135.87;;
20067;SDS011;10194;50.824;7.134;2023-08-21T10:18:31;177.13;;;133.03;;
20067;SDS011;10194;50.824;7.134;2023-08-21T10:21:16;173.17;;;134.67;;
20067;SDS011;10194;50.824;7.134;2023-08-21T10:23:46;173.97;;;135.47;;
20067;SDS011;10194;50.824;7.134;2023-08-21T10:26:13;176.43;;;133.50;;
20067;SDS011;10194;50.824;7.134;2023-08-21T10:31:25;168.97;;;129.87;;
20067;SDS011;10194;50.824;7.134;2023-08-21T10:34:06;165.77;;;127.20;;
20067;SDS011;10194;50.824;7.134;2023-08-21T10:36:37;165.63;;;127.20;;
20067;SDS011;10194;50.824;7.134;2023-08-21T10:39:18;177.97;;;132.03;;
20067;SDS011;10194;50.824;7.134;2023-08-21T10:41:59;173.57;;;130.63;;
20067;SDS011;10194;50.824;7.134;2023-08-21T10:50:03;166.27;;;127.57;;
20067;SDS011;10194;50.824;7.134;2023-08-21T10:52:36;161.90;;;126.20;;
20067;SDS011;10194;50.824;7.134;2023-08-21T10:55:08;168.03;;;128.03;;
20067;SDS011;10194;50.824;7.134;2023-08-21T10:57:35;166.27;;;128.80;;
20067;SDS011;10194;50.824;7.134;2023-08-21T11:00:03;167.83;;;131.20;;
20067;SDS011;10194;50.824;7.134;2023-08-21T11:02:36;163.90;;;128.37;;
20067;SDS011;10194;50.824;7.134;2023-08-21T11:05:05;168.00;;;127.87;;
20067;SDS011;10194;50.824;7.134;2023-08-21T11:07:39;165.20;;;126.47;;
20067;SDS011;10194;50.824;7.134;2023-08-21T11:10:15;164.80;;;126.33;;
20067;SDS011;10194;50.824;7.134;2023-08-21T11:12:50;166.43;;;128.17;;
20067;SDS011;10194;50.824;7.134;2023-08-21T11:15:20;171.27;;;128.97;;
20067;SDS011;10194;50.824;7.134;2023-08-21T11:17:50;164.37;;;125.63;;
20067;SDS011;10194;50.824;7.134;2023-08-21T11:20:21;165.30;;;126.33;;
20067;SDS011;10194;50.824;7.134;2023-08-21T11:22:47;164.53;;;126.57;;
20067;SDS011;10194;50.824;7.134;2023-08-21T11:25:14;164.67;;;127.73;;
20067;SDS011;10194;50.824;7.134;2023-08-21T11:27:44;166.83;;;128.37;;
20067;SDS011;10194;50.824;7.134;2023-08-21T11:30:10;169.03;;;130.13;;
20067;SDS011;10194;50.824;7.134;2023-08-21T11:32:37;163.50;;;127.27;;
20067;SDS011;10194;50.824;7.134;2023-08-21T11:35:03;168.63;;;127.77;;
20067;SDS011;10194;50.824;7.134;2023-08-21T11:37:29;166.13;;;126.77;;
20067;SDS011;10194;50.824;7.134;2023-08-21T11:39:56;166.77;;;126.67;;
20067;SDS011;10194;50.824;7.134;2023-08-21T11:42:31;164.70;;;126.40;;
20067;SDS011;10194;50.824;7.134;2023-08-21T11:44:58;163.90;;;126.57;;
20067;SDS011;10194;50.824;7.134;2023-08-21T11:47:32;169.17;;;125.93;;
20067;SDS011;10194;50.824;7.134;2023-08-21T11:50:05;164.30;;;125.80;;
20067;SDS011;10194;50.824;7.134;2023-08-21T11:52:34;165.70;;;125.50;;
20067;SDS011;10194;50.824;7.134;2023-08-21T11:55:06;161.37;;;124.43;;
20067;SDS011;10194;50.824;7.134;2023-08-21T11:57:45;162.37;;;125.20;;
20067;SDS011;10194;50.824;7.134;2023-08-21T12:00:15;164.40;;;126.37;;
20067;SDS011;10194;50.824;7.134;2023-08-21T12:02:54;165.43;;;128.57;;
20067;SDS011;10194;50.824;7.134;2023-08-21T12:05:21;162.03;;;127.03;;
20067;SDS011;10194;50.824;7.134;2023-08-21T12:07:47;163.40;;;125.03;;
20067;SDS011;10194;50.824;7.134;2023-08-21T12:10:13;162.97;;;124.93;;
20067;SDS011;10194;50.824;7.134;2023-08-21T12:12:39;164.37;;;125.80;;
20067;SDS011;10194;50.824;7.134;2023-08-21T12:15:05;164.57;;;126.30;;
20067;SDS011;10194;50.824;7.134;2023-08-21T12:17:31;168.37;;;127.07;;
20067;SDS011;10194;50.824;7.134;2023-08-21T12:19:57;162.93;;;124.70;;
20067;SDS011;10194;50.824;7.134;2023-08-21T12:22:23;163.97;;;125.03;;
20067;SDS011;10194;50.824;7.134;2023-08-21T12:24:48;164.20;;;126.10;;
20067;SDS011;10194;50.824;7.134;2023-08-21T12:27:14;165.00;;;124.77;;
20067;SDS011;10194;50.824;7.134;2023-08-21T12:29:41;168.43;;;126.80;;
20067;SDS011;10194;50.824;7.134;2023-08-21T12:32:06;166.53;;;126.63;;
20067;SDS011;10194;50.824;7.134;2023-08-21T12:34:32;165.87;;;126.20;;
20067;SDS011;10194;50.824;7.134;2023-08-21T12:36:59;164.97;;;124.23;;
20067;SDS011;10194;50.824;7.134;2023-08-21T12:39:24;166.97;;;127.80;;
20067;SDS011;10194;50.824;7.134;2023-08-21T12:41:50;168.07;;;124.37;;
20067;SDS011;10194;50.824;7.134;2023-08-21T12:44:18;167.97;;;125.27;;
20067;SDS011;10194;50.824;7.134;2023-08-21T12:46:44;166.20;;;124.57;;
20067;SDS011;10194;50.824;7.134;2023-08-21T12:49:10;175.67;;;127.60;;
20067;SDS011;10194;50.824;7.134;2023-08-21T12:51:36;163.67;;;123.47;;
20067;SDS011;10194;50.824;7.134;2023-08-21T12:54:02;163.93;;;123.40;;
20067;SDS011;10194;50.824;7.134;2023-08-21T12:56:29;164.47;;;123.50;;
20067;SDS011;10194;50.824;7.134;2023-08-21T12:58:54;165.13;;;124.30;;
20067;SDS011;10194;50.824;7.134;2023-08-21T13:01:20;167.23;;;125.13;;
20067;SDS011;10194;50.824;7.134;2023-08-21T13:03:46;165.90;;;125.13;;
20067;SDS011;10194;50.824;7.134;2023-08-21T13:06:12;167.30;;;123.43;;
20067;SDS011;10194;50.824;7.134;2023-08-21T13:08:39;168.43;;;124.07;;
20067;SDS011;10194;50.824;7.134;2023-08-21T13:11:05;166.13;;;123.90;;
20067;SDS011;10194;50.824;7.134;2023-08-21T13:13:32;163.77;;;123.17;;
20067;SDS011;10194;50.824;7.134;2023-08-21T13:15:58;163.00;;;121.60;;
20067;SDS011;10194;50.824;7.134;2023-08-21T13:18:25;164.00;;;121.63;;
20067;SDS011;10194;50.824;7.134;2023-08-21T13:20:51;162.90;;;123.03;;
20067;SDS011;10194;50.824;7.134;2023-08-21T13:23:17;166.70;;;120.93;;
20067;SDS011;10194;50.824;7.134;2023-08-21T13:25:43;165.47;;;123.07;;
20067;SDS011;10194;50.824;7.134;2023-08-21T13:28:09;164.07;;;122.03;;
20067;SDS011;10194;50.824;7.134;2023-08-21T13:30:36;163.30;;;122.80;;
20067;SDS011;10194;50.824;7.134;2023-08-21T13:33:02;163.23;;;123.23;;
20067;SDS011;10194;50.824;7.134;2023-08-21T13:35:29;163.33;;;122.80;;
20067;SDS011;10194;50.824;7.134;2023-08-21T13:37:55;162.87;;;121.97;;
20067;SDS011;10194;50.824;7.134;2023-08-21T13:40:21;160.47;;;121.10;;
20067;SDS011;10194;50.824;7.134;2023-08-21T13:42:49;162.00;;;122.13;;
20067;SDS011;10194;50.824;7.134;2023-08-21T13:45:17;164.23;;;122.03;;
20067;SDS011;10194;50.824;7.134;2023-08-21T13:47:45;166.33;;;123.27;;
20067;SDS011;10194;50.824;7.134;2023-08-21T13:50:12;165.17;;;123.37;;
20067;SDS011;10194;50.824;7.134;2023-08-21T13:52:40;160.77;;;119.37;;
20067;SDS011;10194;50.824;7.134;2023-08-21T13:55:07;160.23;;;121.43;;
20067;SDS011;10194;50.824;7.134;2023-08-21T13:57:35;163.33;;;121.53;;
20067;SDS011;10194;50.824;7.134;2023-08-21T14:00:03;165.23;;;121.60;;
20067;SDS011;10194;50.824;7.134;2023-08-21T14:02:36;164.03;;;120.53;;
20067;SDS011;10194;50.824;7.134;2023-08-21T14:05:03;159.60;;;120.67;;
20067;SDS011;10194;50.824;7.134;2023-08-21T14:07:30;159.60;;;120.10;;